KRSV

Crawford Co Airport

Robinson, Illinois, USA
METAR KRSV 170015Z AUTO 22004KT 10SM CLR 03/02 A3016 RMK AO2 T00260020
Observed Flight Rules
Dec-17 @ 00:15 UTC (8 minutes ago) Visual Flight Rules
Wind Visibility Clouds
220° at 4 knots 10 miles
  • Clear skies
Temperatures Readings
Current 3°C / 37°F
Dewpoint 2°C / 36°F
Humidity 93%
Altimeter 30.16" Hg
Pressure 1021 hPa
Elevation 141
METAR KRSV 170015Z AUTO 22004KT 10SM CLR 03/02 A3016 RMK AO2 T00260020
Observed Flight Rules
Dec-17 @ 00:15 UTC
(8 minutes ago)
VFR
Wind Visibility
220° at 4 knots 10 miles
Clouds
  • Clear skies
Temperature Dewpoint
3°C / 37°F 2°C / 36°F
Humidity Altimeter Pressure
93% 30.16" Hg 1021 hPa